Time;durP1;ratioP1;P1;durP2;ratioP2;P2;SDS_P1;SDS_P2;PMS_P1;PMS_P2;Temp;Humidity;BMP_temperature;BMP_pressure;BME280_temperature;BME280_humidity;BME280_pressure;Samples;Min_cycle;Max_cycle;Signal;HPM_P1;HPM_P2
2022/10/03 00:02:14;;;;;;;;;;;13.10;74.60;;;;;;5071574;28;20021;-67
2022/10/03 00:05:01;;;;;;;1.20;1.20;;;13.00;74.50;;;;;;5072935;28;19908;-66
2022/10/03 00:07:56;;;;;;;1.40;1.33;;;13.10;74.70;;;;;;5065585;28;20058;-66
2022/10/03 00:10:59;;;;;;;1.38;1.27;;;13.10;74.60;;;;;;5072322;28;20029;-66
2022/10/03 00:13:52;;;;;;;1.65;1.55;;;13.10;74.50;;;;;;5067283;28;20028;-66
2022/10/03 00:16:52;;;;;;;1.67;1.52;;;13.10;74.30;;;;;;5063495;28;20021;-66
2022/10/03 00:19:21;;;;;;;1.88;1.77;;;13.10;74.30;;;;;;5071430;28;20364;-66
2022/10/03 00:21:52;;;;;;;1.55;1.45;;;13.10;74.30;;;;;;5068019;28;20426;-66
2022/10/03 00:24:41;;;;;;;1.52;1.38;;;13.00;74.40;;;;;;5071717;28;20059;-66
2022/10/03 00:27:31;;;;;;;1.20;1.20;;;13.00;74.40;;;;;;5072479;28;20032;-66
2022/10/03 00:30:20;;;;;;;1.50;1.33;;;13.00;74.60;;;;;;5066739;28;20047;-66
2022/10/03 00:33:17;;;;;;;1.63;1.52;;;13.00;74.70;;;;;;5070146;28;20058;-66
2022/10/03 00:36:18;;;;;;;1.98;1.60;;;13.00;74.60;;;;;;5071529;28;20422;-66
2022/10/03 00:39:05;;;;;;;2.00;1.27;;;13.00;74.70;;;;;;5060683;28;20086;-66
2022/10/03 00:42:00;;;;;;;1.50;1.40;;;13.00;74.70;;;;;;5071323;28;20082;-66
2022/10/03 00:44:32;;;;;;;1.95;1.77;;;12.90;74.70;;;;;;5059345;28;20048;-66
2022/10/03 00:47:15;;;;;;;2.00;1.55;;;12.90;74.80;;;;;;5083064;28;20025;-66
2022/10/03 00:49:44;;;;;;;1.60;1.50;;;12.80;74.80;;;;;;5065408;28;20032;-66
2022/10/03 00:52:42;;;;;;;1.85;1.75;;;12.80;74.90;;;;;;5067093;28;20040;-66
2022/10/03 00:55:30;;;;;;;1.50;1.40;;;12.80;74.90;;;;;;5056796;28;20067;-66
2022/10/03 00:57:58;;;;;;;2.63;1.80;;;12.80;75.00;;;;;;5068380;28;20115;-66
2022/10/03 01:00:32;;;;;;;1.55;1.45;;;12.80;75.20;;;;;;5071050;28;20024;-66
2022/10/03 01:03:12;;;;;;;1.25;1.23;;;12.80;75.40;;;;;;5068970;28;20104;-66
2022/10/03 01:06:22;;;;;;;1.38;1.38;;;12.80;75.50;;;;;;5071717;28;20025;-66
2022/10/03 01:09:05;;;;;;;1.30;1.30;;;12.80;75.50;;;;;;5068629;28;20369;-66
2022/10/03 01:11:46;;;;;;;1.40;1.30;;;12.80;75.40;;;;;;5067083;28;20024;-66
2022/10/03 01:14:30;;;;;;;1.80;1.70;;;12.90;75.50;;;;;;5068976;28;20387;-66
2022/10/03 01:17:33;;;;;;;1.60;1.50;;;12.90;75.40;;;;;;5071499;28;20655;-66
2022/10/03 01:20:06;;;;;;;1.80;1.70;;;12.90;75.50;;;;;;5063433;28;20479;-66
2022/10/03 01:22:38;;;;;;;1.63;1.50;;;12.80;75.30;;;;;;5078851;28;20017;-66
2022/10/03 01:25:25;;;;;;;1.50;1.40;;;12.80;75.50;;;;;;5062086;28;20021;-66
2022/10/03 01:31:01;;;;;;;1.30;1.20;;;12.90;75.90;;;;;;5072238;28;20455;-66
2022/10/03 01:33:36;;;;;;;1.48;1.38;;;12.90;75.90;;;;;;5068679;28;20024;-66
2022/10/03 01:36:02;;;;;;;1.55;1.45;;;13.00;75.90;;;;;;5071198;28;20448;-66
2022/10/03 01:38:42;;;;;;;1.00;1.00;;;13.00;75.90;;;;;;5071494;28;20127;-66
2022/10/03 01:41:34;;;;;;;1.05;1.00;;;13.10;75.90;;;;;;5072605;28;20373;-66
2022/10/03 01:44:12;;;;;;;1.65;1.50;;;13.10;76.00;;;;;;5063878;28;20036;-66
2022/10/03 01:46:39;;;;;;;1.90;1.80;;;13.20;75.90;;;;;;5073702;28;20113;-66
2022/10/03 01:49:11;;;;;;;1.55;1.45;;;13.20;75.80;;;;;;5074625;28;20107;-66
2022/10/03 01:52:12;;;;;;;1.45;1.35;;;13.20;75.70;;;;;;5074892;28;20036;-66
2022/10/03 01:55:02;;;;;;;1.77;1.67;;;13.20;75.80;;;;;;5049922;28;20058;-66
2022/10/03 01:57:52;;;;;;;1.17;1.10;;;13.20;75.80;;;;;;5077767;28;20043;-66
2022/10/03 02:00:25;;;;;;;1.10;1.10;;;13.20;75.90;;;;;;5064614;28;20431;-66
2022/10/03 02:03:15;;;;;;;1.33;1.30;;;13.20;76.00;;;;;;5067692;28;20031;-66
2022/10/03 02:06:05;;;;;;;1.50;1.40;;;13.20;76.00;;;;;;5070639;28;20437;-66
2022/10/03 02:08:55;;;;;;;1.10;1.10;;;13.20;76.00;;;;;;5062946;28;20024;-66
2022/10/03 02:11:37;;;;;;;1.00;1.00;;;13.20;76.00;;;;;;5069635;28;20025;-66
2022/10/03 02:14:46;;;;;;;1.15;1.15;;;13.20;76.00;;;;;;5071040;28;20025;-66
2022/10/03 02:17:51;;;;;;;0.95;0.95;;;13.30;76.10;;;;;;5069922;28;20024;-66
2022/10/03 02:20:56;;;;;;;1.20;1.20;;;13.30;76.10;;;;;;5065608;28;20020;-66
2022/10/03 02:23:31;;;;;;;1.00;1.00;;;13.30;76.10;;;;;;5027110;28;20029;-66
2022/10/03 02:26:34;;;;;;;1.20;1.20;;;13.30;76.20;;;;;;5061116;28;20064;-66
2022/10/03 02:29:54;;;;;;;1.15;0.98;;;13.30;76.10;;;;;;5070002;28;20060;-66
2022/10/03 02:32:26;;;;;;;1.40;1.30;;;13.40;76.10;;;;;;5023113;28;20604;-66
2022/10/03 02:35:19;;;;;;;1.52;1.40;;;13.40;76.10;;;;;;5059033;28;20117;-66
2022/10/03 02:37:57;;;;;;;1.38;1.30;;;13.40;75.90;;;;;;5066275;28;20056;-66
2022/10/03 02:40:55;;;;;;;1.42;1.33;;;13.50;75.90;;;;;;5069764;28;20050;-66
2022/10/03 02:43:32;;;;;;;1.45;1.35;;;13.40;75.90;;;;;;5065731;28;20109;-66
2022/10/03 02:46:14;;;;;;;1.40;1.30;;;13.50;76.10;;;;;;5066903;28;20043;-66
2022/10/03 02:48:58;;;;;;;1.30;1.30;;;13.50;76.70;;;;;;5073440;28;20020;-66
2022/10/03 02:51:47;;;;;;;1.67;1.58;;;13.50;76.10;;;;;;5069253;28;20040;-66
2022/10/03 02:54:41;;;;;;;1.98;1.40;;;13.50;76.00;;;;;;5074238;28;20093;-66
2022/10/03 02:57:50;;;;;;;1.70;1.60;;;13.50;75.90;;;;;;5071907;28;20025;-66
2022/10/03 03:00:19;;;;;;;1.35;1.25;;;13.50;76.00;;;;;;5068738;28;20391;-66
2022/10/03 03:03:19;;;;;;;1.35;1.25;;;13.60;76.10;;;;;;5074828;28;20154;-66
2022/10/03 03:06:06;;;;;;;1.70;1.60;;;13.60;76.10;;;;;;5070464;28;20096;-66
2022/10/03 03:08:53;;;;;;;1.35;1.25;;;13.60;76.20;;;;;;5072060;28;20071;-66
2022/10/03 03:11:37;;;;;;;1.50;1.40;;;13.60;76.20;;;;;;5072518;28;20028;-66
2022/10/03 03:14:08;;;;;;;1.30;1.20;;;13.60;76.10;;;;;;5070291;28;20016;-66
2022/10/03 03:17:07;;;;;;;1.40;1.30;;;13.70;76.40;;;;;;5084213;28;20025;-66
2022/10/03 03:20:00;;;;;;;1.13;1.10;;;13.60;76.20;;;;;;5068971;28;20029;-66
2022/10/03 03:22:34;;;;;;;1.83;1.50;;;13.70;76.40;;;;;;5072602;28;20044;-66
2022/10/03 03:25:15;;;;;;;1.52;1.42;;;13.70;76.40;;;;;;5074040;28;20021;-66
2022/10/03 03:27:50;;;;;;;1.40;1.30;;;13.70;76.60;;;;;;5074906;28;20027;-66
2022/10/03 03:30:22;;;;;;;1.48;1.38;;;13.70;76.60;;;;;;5074076;28;20387;-66
2022/10/03 03:33:00;;;;;;;1.38;1.27;;;13.70;76.60;;;;;;5074236;28;20025;-66
2022/10/03 03:35:32;;;;;;;1.55;1.45;;;13.70;76.60;;;;;;5080881;28;20024;-66
2022/10/03 03:38:13;;;;;;;1.48;1.38;;;13.70;76.80;;;;;;5081999;28;20024;-66
2022/10/03 03:40:53;;;;;;;1.95;1.52;;;13.70;76.90;;;;;;5073962;28;20336;-66
2022/10/03 03:43:33;;;;;;;1.67;1.58;;;13.70;76.90;;;;;;5068891;28;20101;-66
2022/10/03 03:46:25;;;;;;;1.58;1.48;;;13.70;77.00;;;;;;5077605;28;20107;-66
2022/10/03 03:49:11;;;;;;;1.40;1.30;;;13.70;77.20;;;;;;5071158;28;20108;-66
2022/10/03 03:51:49;;;;;;;1.58;1.48;;;13.70;77.30;;;;;;5073202;28;20036;-66
2022/10/03 03:54:27;;;;;;;2.78;1.63;;;13.70;77.30;;;;;;5072274;28;20060;-66
2022/10/03 03:57:07;;;;;;;1.80;1.70;;;13.70;77.50;;;;;;5076646;28;20498;-66
2022/10/03 03:59:40;;;;;;;1.60;1.50;;;13.70;77.60;;;;;;5068905;28;20028;-66
2022/10/03 04:02:25;;;;;;;1.80;1.70;;;13.70;77.50;;;;;;5071412;28;20032;-66
2022/10/03 04:05:33;;;;;;;1.50;1.40;;;13.70;77.50;;;;;;5071971;28;20070;-66
2022/10/03 04:08:30;;;;;;;1.50;1.40;;;13.70;77.60;;;;;;5055810;28;20037;-66
2022/10/03 04:11:18;;;;;;;1.30;1.20;;;13.70;77.80;;;;;;5083449;28;20430;-66
2022/10/03 04:13:52;;;;;;;1.48;1.38;;;13.70;77.80;;;;;;5069520;28;20052;-66
2022/10/03 04:19:24;;;;;;;1.60;1.50;;;13.80;77.90;;;;;;5072123;28;20114;-66
2022/10/03 04:22:10;;;;;;;1.67;1.58;;;13.80;78.00;;;;;;5072648;28;20029;-66
2022/10/03 04:24:42;;;;;;;1.35;1.27;;;13.70;78.10;;;;;;5058136;28;20495;-66
2022/10/03 04:27:23;;;;;;;1.70;1.60;;;13.70;78.30;;;;;;5071216;28;20445;-66
2022/10/03 04:30:09;;;;;;;1.30;1.30;;;13.70;78.60;;;;;;5073362;28;20494;-66
2022/10/03 04:32:56;;;;;;;1.25;1.20;;;13.70;78.80;;;;;;5067590;28;20500;-66
2022/10/03 04:35:47;;;;;;;1.38;1.30;;;13.70;78.80;;;;;;5067780;28;20380;-66
2022/10/03 04:38:44;;;;;;;1.30;1.30;;;13.70;79.00;;;;;;5071233;28;20388;-66
2022/10/03 04:41:39;;;;;;;1.40;1.30;;;13.80;79.00;;;;;;5068985;28;20035;-66
2022/10/03 04:44:31;;;;;;;1.38;1.27;;;13.80;79.10;;;;;;5066770;28;20048;-67
2022/10/03 04:47:09;;;;;;;1.58;1.42;;;13.80;79.00;;;;;;5046005;28;20041;-66
2022/10/03 04:49:43;;;;;;;1.40;1.30;;;13.90;79.20;;;;;;5065189;28;20028;-66
2022/10/03 04:52:41;;;;;;;1.42;1.33;;;13.90;79.10;;;;;;5063797;28;20395;-66
2022/10/03 04:55:35;;;;;;;1.00;1.00;;;14.00;79.20;;;;;;5071763;28;20012;-66
2022/10/03 04:58:07;;;;;;;1.15;1.10;;;14.10;78.90;;;;;;5071387;28;20130;-66
2022/10/03 05:00:53;;;;;;;1.60;1.50;;;14.10;79.10;;;;;;5071447;28;20024;-66
2022/10/03 05:03:30;;;;;;;1.10;1.10;;;14.10;79.10;;;;;;5066267;28;20107;-66
2022/10/03 05:06:05;;;;;;;1.95;1.60;;;14.20;79.00;;;;;;5071365;28;20032;-66
2022/10/03 05:08:36;;;;;;;1.50;1.40;;;14.20;79.00;;;;;;5070775;28;20028;-66
2022/10/03 05:11:11;;;;;;;1.60;1.50;;;14.20;78.90;;;;;;5071121;28;20083;-66
2022/10/03 05:13:42;;;;;;;1.42;1.33;;;14.30;79.00;;;;;;5068937;28;20251;-66
2022/10/03 05:16:20;;;;;;;1.50;1.40;;;14.30;78.90;;;;;;5066724;28;20491;-66
2022/10/03 05:19:07;;;;;;;1.85;1.50;;;14.30;79.00;;;;;;5066926;28;20029;-66
2022/10/03 05:21:46;;;;;;;1.25;1.20;;;14.30;78.90;;;;;;5059020;28;20085;-66
2022/10/03 05:24:18;;;;;;;1.60;1.50;;;14.30;78.90;;;;;;5067633;28;20035;-66
2022/10/03 05:26:52;;;;;;;1.10;1.10;;;14.40;79.00;;;;;;5070893;28;20090;-66
2022/10/03 05:29:52;;;;;;;1.40;1.30;;;14.30;79.00;;;;;;5070417;28;20020;-66
2022/10/03 05:32:43;;;;;;;1.20;1.15;;;14.40;79.00;;;;;;5069694;28;20025;-66
2022/10/03 05:35:25;;;;;;;1.80;1.70;;;14.40;79.10;;;;;;5066641;28;20095;-66
2022/10/03 05:38:11;;;;;;;1.20;1.20;;;14.40;79.10;;;;;;5073147;28;20035;-66
2022/10/03 05:40:42;;;;;;;1.60;1.50;;;14.40;79.20;;;;;;5068703;28;20498;-66
2022/10/03 05:43:43;;;;;;;1.95;1.70;;;14.40;79.40;;;;;;5069054;28;20094;-66
2022/10/03 05:46:30;;;;;;;1.70;1.40;;;14.40;80.00;;;;;;5065701;28;20119;-66
2022/10/03 05:49:15;;;;;;;2.13;1.90;;;14.40;79.40;;;;;;5064619;28;20021;-66
2022/10/03 05:52:06;;;;;;;2.17;1.60;;;14.50;79.40;;;;;;5066795;28;20020;-66
2022/10/03 05:55:09;;;;;;;1.65;1.55;;;14.50;79.50;;;;;;5068857;28;20464;-66
2022/10/03 05:57:59;;;;;;;1.75;1.65;;;14.50;79.40;;;;;;5061351;28;20074;-66
2022/10/03 06:00:53;;;;;;;2.00;1.80;;;14.50;79.60;;;;;;5059575;28;20119;-66
2022/10/03 06:03:22;;;;;;;2.00;1.90;;;14.40;79.50;;;;;;5051716;28;20048;-69
2022/10/03 06:06:06;;;;;;;2.55;1.88;;;14.40;79.80;;;;;;5057704;28;20028;-66
2022/10/03 06:08:54;;;;;;;3.28;2.00;;;14.40;79.90;;;;;;5053204;28;20024;-66
2022/10/03 06:11:39;;;;;;;1.90;1.80;;;14.40;80.00;;;;;;5053528;28;20048;-66
2022/10/03 06:14:28;;;;;;;2.30;1.90;;;14.50;80.20;;;;;;5066372;28;20035;-66
2022/10/03 06:17:15;;;;;;;2.22;2.03;;;14.50;80.20;;;;;;5062390;28;20350;-66
2022/10/03 06:19:49;;;;;;;2.10;1.90;;;14.50;80.30;;;;;;5062414;28;20059;-66
2022/10/03 06:22:58;;;;;;;3.75;1.85;;;14.60;80.40;;;;;;5064955;28;20370;-66
2022/10/03 06:25:30;;;;;;;1.75;1.65;;;14.60;80.40;;;;;;5059853;28;20025;-66
2022/10/03 06:28:04;;;;;;;2.13;1.90;;;14.70;80.40;;;;;;5063781;28;20033;-66
2022/10/03 06:30:36;;;;;;;2.22;1.77;;;14.80;80.30;;;;;;5057776;28;20357;-66
2022/10/03 06:33:14;;;;;;;1.95;1.85;;;14.80;80.20;;;;;;5053947;28;20348;-66
2022/10/03 06:36:08;;;;;;;2.03;1.92;;;14.90;80.30;;;;;;5057203;28;20108;-66
2022/10/03 06:39:11;;;;;;;2.88;2.05;;;15.00;80.10;;;;;;5051840;28;20025;-66
2022/10/03 06:42:14;;;;;;;1.73;1.63;;;15.00;80.00;;;;;;5057967;28;20062;-66
2022/10/03 06:44:58;;;;;;;1.92;1.83;;;15.10;79.80;;;;;;5057409;28;20300;-66
2022/10/03 06:47:50;;;;;;;1.90;1.48;;;15.20;79.80;;;;;;5055046;28;20537;-66
2022/10/03 06:50:53;;;;;;;2.05;1.80;;;15.30;79.70;;;;;;5051686;28;20024;-66
2022/10/03 06:53:47;;;;;;;2.40;1.60;;;15.30;79.60;;;;;;5056948;28;20024;-66
2022/10/03 06:56:12;;;;;;;1.80;1.70;;;15.40;79.70;;;;;;5058779;28;20024;-66
2022/10/03 06:58:50;;;;;;;2.03;1.92;;;15.50;79.70;;;;;;5057574;28;20024;-67
2022/10/03 07:01:48;;;;;;;2.05;1.85;;;15.50;79.50;;;;;;5054991;28;20162;-66
2022/10/03 07:04:48;;;;;;;2.10;1.70;;;15.60;79.30;;;;;;5047560;28;20792;-67
2022/10/03 07:07:39;;;;;;;2.08;1.92;;;15.70;78.90;;;;;;5047541;28;20024;-66
2022/10/03 07:10:23;;;;;;;2.78;1.88;;;15.80;78.80;;;;;;5048870;28;20476;-66
2022/10/03 07:13:29;;;;;;;1.80;1.70;;;15.80;78.40;;;;;;5043960;28;20499;-66
2022/10/03 07:16:07;;;;;;;1.33;1.33;;;15.80;78.30;;;;;;5048445;28;20158;-66
2022/10/03 07:19:10;;;;;;;1.65;1.55;;;15.90;78.40;;;;;;5041612;28;20147;-66
2022/10/03 07:22:03;;;;;;;1.58;1.42;;;15.90;78.20;;;;;;5041863;28;20373;-66
2022/10/03 07:25:06;;;;;;;2.55;1.90;;;16.00;78.20;;;;;;5045546;28;20285;-67
2022/10/03 07:27:51;;;;;;;1.90;1.73;;;16.10;77.70;;;;;;5046247;28;20468;-67
2022/10/03 07:30:22;;;;;;;1.95;1.70;;;16.10;77.20;;;;;;5046285;28;20120;-66
2022/10/03 07:33:19;;;;;;;2.05;1.63;;;16.10;76.60;;;;;;5043941;28;20025;-66
2022/10/03 07:39:08;;;;;;;1.70;1.52;;;16.00;76.20;;;;;;5051031;28;22754;-66
2022/10/03 07:41:55;;;;;;;1.95;1.60;;;16.00;76.10;;;;;;5051166;28;20112;-66
2022/10/03 07:44:43;;;;;;;1.52;1.40;;;15.90;76.00;;;;;;5052522;28;20060;-66
2022/10/03 07:47:45;;;;;;;1.48;1.38;;;15.90;75.90;;;;;;5048137;28;20432;-66
2022/10/03 07:50:30;;;;;;;1.58;1.38;;;15.80;75.80;;;;;;5046081;28;20422;-66
2022/10/03 07:53:19;;;;;;;1.40;1.30;;;15.80;75.80;;;;;;5052406;28;20021;-65
2022/10/03 07:56:19;;;;;;;1.40;1.30;;;15.80;75.80;;;;;;5044505;28;20043;-66
2022/10/03 07:59:22;;;;;;;1.45;1.35;;;15.80;75.50;;;;;;5033916;28;20029;-63
2022/10/03 08:02:09;;;;;;;1.52;1.40;;;15.80;75.30;;;;;;5035168;28;20024;-66
2022/10/03 08:05:10;;;;;;;1.50;1.40;;;15.80;75.30;;;;;;5042375;28;20040;-68
2022/10/03 08:07:44;;;;;;;1.60;1.50;;;15.90;75.20;;;;;;5032137;28;20041;-66
2022/10/03 08:10:41;;;;;;;1.42;1.35;;;15.90;75.10;;;;;;5044448;28;20570;-67
2022/10/03 08:13:08;;;;;;;1.30;1.30;;;15.90;75.10;;;;;;5043079;28;21827;-67
2022/10/03 08:16:01;;;;;;;1.55;1.23;;;15.90;75.10;;;;;;5049642;28;20115;-66
2022/10/03 08:19:03;;;;;;;1.35;1.35;;;16.00;75.30;;;;;;5048121;28;20747;-67
2022/10/03 08:21:50;;;;;;;1.63;1.52;;;16.00;75.30;;;;;;5042635;28;20052;-67
2022/10/03 08:24:57;;;;;;;1.30;1.30;;;16.10;75.30;;;;;;5050251;28;20480;-67
2022/10/03 08:27:43;;;;;;;2.17;1.75;;;16.10;75.30;;;;;;5031822;28;20064;-67
2022/10/03 08:30:41;;;;;;;1.83;1.73;;;16.20;75.30;;;;;;5048637;28;20036;-67
2022/10/03 08:33:58;;;;;;;3.13;1.90;;;16.20;75.30;;;;;;5041879;28;20032;-67
2022/10/03 08:36:56;;;;;;;2.50;1.52;;;16.30;75.40;;;;;;5033673;28;20041;-67
2022/10/03 08:39:27;;;;;;;2.28;1.30;;;16.40;75.30;;;;;;5051975;28;20025;-67
2022/10/03 08:42:19;;;;;;;1.55;1.45;;;16.40;75.10;;;;;;5046557;28;20029;-67
2022/10/03 08:44:56;;;;;;;1.88;1.60;;;16.50;75.10;;;;;;5032377;28;20145;-67
2022/10/03 08:47:36;;;;;;;1.95;1.50;;;16.50;75.00;;;;;;5047589;28;20899;-66
2022/10/03 08:50:02;;;;;;;1.42;1.30;;;16.50;75.00;;;;;;5047139;28;20064;-67
2022/10/03 08:52:46;;;;;;;1.80;1.70;;;16.60;75.00;;;;;;5051307;28;20135;-67
2022/10/03 08:55:27;;;;;;;1.40;1.30;;;16.70;74.40;;;;;;5046260;28;20535;-67
2022/10/03 08:58:14;;;;;;;1.58;1.48;;;16.70;74.10;;;;;;5051271;28;20082;-67
2022/10/03 09:01:12;;;;;;;1.90;1.70;;;16.80;74.10;;;;;;5047299;28;20479;-66
2022/10/03 09:04:11;;;;;;;1.52;1.42;;;16.80;73.00;;;;;;5044824;28;20048;-67
2022/10/03 09:06:39;;;;;;;1.85;1.70;;;16.80;72.90;;;;;;5046531;28;20024;-67
2022/10/03 09:09:28;;;;;;;1.40;1.30;;;16.90;72.80;;;;;;5046494;28;20036;-67
2022/10/03 09:12:22;;;;;;;1.42;1.33;;;16.90;72.80;;;;;;5041502;28;20048;-67
2022/10/03 09:15:00;;;;;;;1.33;1.27;;;16.90;72.30;;;;;;5044599;28;20025;-67
2022/10/03 09:18:11;;;;;;;1.27;1.17;;;17.00;72.30;;;;;;5058637;28;21588;-66
2022/10/03 09:21:15;;;;;;;1.30;1.20;;;17.00;72.30;;;;;;5031530;28;20040;-67
2022/10/03 09:23:41;;;;;;;1.45;1.35;;;17.10;71.90;;;;;;5035309;28;20029;-66
2022/10/03 09:26:34;;;;;;;1.40;1.23;;;17.20;71.80;;;;;;5045712;28;20651;-66
2022/10/03 09:29:36;;;;;;;1.30;1.20;;;17.30;71.40;;;;;;5050950;28;20137;-67
2022/10/03 09:32:22;;;;;;;1.08;0.98;;;17.30;71.20;;;;;;5048531;28;20032;-67
2022/10/03 09:35:08;;;;;;;2.38;1.33;;;17.40;71.30;;;;;;5044055;28;20028;-67
2022/10/03 09:37:54;;;;;;;1.30;1.20;;;17.40;70.70;;;;;;5050206;28;20064;-68
2022/10/03 09:40:48;;;;;;;1.00;1.00;;;17.50;70.40;;;;;;5030243;28;20045;-67
2022/10/03 09:43:23;;;;;;;1.17;1.17;;;17.50;70.20;;;;;;5036963;28;20040;-67
2022/10/03 09:46:03;;;;;;;0.85;0.82;;;17.50;69.90;;;;;;5040382;28;20025;-67
2022/10/03 09:48:53;;;;;;;1.02;0.90;;;17.60;69.70;;;;;;5042779;28;20033;-65
2022/10/03 09:51:30;;;;;;;1.50;1.40;;;17.60;69.80;;;;;;5054807;28;20506;-65
2022/10/03 09:54:24;;;;;;;1.23;1.13;;;17.70;69.70;;;;;;5045180;28;20491;-65
2022/10/03 09:57:11;;;;;;;1.30;1.20;;;17.80;69.60;;;;;;5040277;28;20045;-65
2022/10/03 10:00:15;;;;;;;1.50;1.40;;;17.80;69.50;;;;;;5048816;28;20737;-65
2022/10/03 10:03:08;;;;;;;1.48;1.20;;;17.80;69.40;;;;;;5042619;28;20041;-65
2022/10/03 10:05:56;;;;;;;1.80;1.38;;;17.90;69.20;;;;;;5039375;28;20029;-66
2022/10/03 10:08:33;;;;;;;1.50;1.40;;;17.90;69.00;;;;;;5035873;28;20032;-66
2022/10/03 10:11:25;;;;;;;1.38;1.27;;;17.90;68.60;;;;;;5044781;28;20043;-66
2022/10/03 10:14:10;;;;;;;1.63;1.23;;;17.90;68.60;;;;;;5049081;28;20707;-66
2022/10/03 10:16:57;;;;;;;2.00;1.55;;;17.90;68.50;;;;;;5045299;28;20031;-66
2022/10/03 10:19:44;;;;;;;1.58;1.48;;;17.90;68.30;;;;;;5045255;28;20124;-65
2022/10/03 10:22:46;;;;;;;1.15;1.15;;;17.90;68.30;;;;;;5049683;28;20056;-66
2022/10/03 10:25:42;;;;;;;0.85;0.85;;;17.80;68.30;;;;;;5044997;28;20032;-66
2022/10/03 10:28:42;;;;;;;2.10;1.45;;;17.80;68.40;;;;;;5053094;28;20734;-66
2022/10/03 10:31:29;;;;;;;1.45;1.38;;;17.70;68.50;;;;;;5051293;28;20032;-67
2022/10/03 10:34:29;;;;;;;1.85;1.70;;;17.60;68.30;;;;;;5054954;28;20025;-66
2022/10/03 10:37:18;;;;;;;1.40;1.30;;;17.50;68.50;;;;;;5050325;28;20120;-66
2022/10/03 10:40:01;;;;;;;1.60;1.50;;;17.40;68.90;;;;;;5057474;28;20124;-66
2022/10/03 10:42:54;;;;;;;1.38;1.30;;;17.20;69.20;;;;;;5045716;28;20029;-66
2022/10/03 10:45:41;;;;;;;1.95;1.77;;;17.10;69.70;;;;;;5046866;28;20037;-66
2022/10/03 10:48:28;;;;;;;1.42;1.33;;;17.10;70.00;;;;;;5050257;28;20033;-66
2022/10/03 10:51:13;;;;;;;1.20;1.10;;;17.10;70.00;;;;;;5046252;28;20040;-66
2022/10/03 10:54:32;;;;;;;1.17;1.08;;;17.10;70.10;;;;;;5045433;28;20374;-66
2022/10/03 10:57:25;;;;;;;1.95;1.20;;;17.20;69.90;;;;;;5006055;28;20907;-66
2022/10/03 11:00:25;;;;;;;1.13;1.13;;;17.20;69.90;;;;;;5045915;28;20020;-67
2022/10/03 11:03:09;;;;;;;1.33;1.20;;;17.10;69.70;;;;;;5047146;28;20036;-66
2022/10/03 11:05:47;;;;;;;0.90;0.90;;;17.10;69.60;;;;;;5047324;28;20031;-66
2022/10/03 11:08:30;;;;;;;1.30;1.30;;;17.10;69.70;;;;;;5053319;28;20059;-66
2022/10/03 11:11:22;;;;;;;1.35;1.25;;;17.00;69.60;;;;;;5050181;28;20167;-66
2022/10/03 11:14:29;;;;;;;1.35;1.25;;;17.00;69.70;;;;;;5038098;28;20149;-66
2022/10/03 11:17:28;;;;;;;1.42;1.33;;;16.90;69.60;;;;;;5052126;28;20093;-66
2022/10/03 11:20:11;;;;;;;1.42;1.33;;;16.90;69.60;;;;;;5048286;28;20605;-65
2022/10/03 11:22:52;;;;;;;1.52;1.42;;;16.80;69.60;;;;;;5047002;28;20094;-66
2022/10/03 11:25:32;;;;;;;1.10;1.00;;;16.80;69.60;;;;;;5051970;28;20025;-65
2022/10/03 11:28:20;;;;;;;1.17;1.13;;;16.80;69.70;;;;;;5054662;28;20029;-67
2022/10/03 11:30:49;;;;;;;1.50;1.40;;;16.80;69.80;;;;;;5049358;28;20025;-67
2022/10/03 11:33:34;;;;;;;1.33;1.33;;;16.80;69.90;;;;;;5040468;28;20090;-67
2022/10/03 11:36:31;;;;;;;3.22;1.48;;;16.80;69.90;;;;;;5046357;28;20024;-67
2022/10/03 11:39:05;;;;;;;1.30;1.20;;;16.80;69.90;;;;;;5041616;28;20020;-66
2022/10/03 11:41:46;;;;;;;1.63;1.52;;;16.80;70.10;;;;;;5050244;28;20028;-66
2022/10/03 11:44:24;;;;;;;1.30;1.20;;;16.90;70.20;;;;;;5042499;28;20679;-66
2022/10/03 11:46:57;;;;;;;1.20;1.20;;;17.00;70.00;;;;;;5051512;28;20515;-65
2022/10/03 11:49:45;;;;;;;1.40;1.40;;;16.90;69.80;;;;;;5045674;28;20029;-66
2022/10/03 11:52:26;;;;;;;1.52;1.42;;;17.00;69.70;;;;;;5045022;28;20664;-65
2022/10/03 11:55:17;;;;;;;1.40;1.30;;;17.00;70.40;;;;;;5049769;28;20031;-65
2022/10/03 11:57:50;;;;;;;1.47;1.37;;;17.00;69.90;;;;;;5046424;28;20074;-65
2022/10/03 12:00:19;;;;;;;1.60;1.50;;;17.00;69.80;;;;;;5044539;28;20269;-66
2022/10/03 12:02:54;;;;;;;1.30;1.20;;;17.00;69.80;;;;;;5053648;28;20042;-66
2022/10/03 12:05:39;;;;;;;1.58;1.48;;;17.00;69.80;;;;;;5050810;28;20025;-65
2022/10/03 12:11:36;;;;;;;2.35;1.95;;;17.00;69.60;;;;;;5053565;28;20563;-66
2022/10/03 12:14:08;;;;;;;1.50;1.40;;;17.00;69.90;;;;;;5064022;28;20033;-66
2022/10/03 12:16:39;;;;;;;1.80;1.58;;;16.80;69.90;;;;;;5041221;28;20036;-67
2022/10/03 12:19:19;;;;;;;1.30;0.98;;;16.70;70.20;;;;;;5050322;28;20024;-67
2022/10/03 12:21:56;;;;;;;1.00;1.00;;;16.50;70.90;;;;;;5051337;28;20020;-67
2022/10/03 12:24:27;;;;;;;0.93;0.93;;;16.40;71.00;;;;;;5049511;28;21860;-66
2022/10/03 12:27:05;;;;;;;0.90;0.90;;;16.20;71.30;;;;;;5052674;28;20100;-66
2022/10/03 12:29:35;;;;;;;0.70;0.70;;;16.10;71.90;;;;;;5041427;28;20056;-67
2022/10/03 12:32:27;;;;;;;1.05;1.05;;;16.10;72.40;;;;;;5048463;28;20506;-67
2022/10/03 12:34:59;;;;;;;0.90;0.90;;;16.10;72.60;;;;;;5039231;28;20025;-66
2022/10/03 12:37:32;;;;;;;;;;;16.10;73.10;;;;;;5042351;28;20051;-66
2022/10/03 12:40:16;;;;;;;0.90;0.90;;;16.10;73.30;;;;;;5046577;28;19908;-67
2022/10/03 12:43:29;;;;;;;1.13;1.13;;;16.20;73.10;;;;;;5045581;28;20040;-66
2022/10/03 12:46:15;;;;;;;1.85;1.25;;;16.20;73.20;;;;;;5043499;28;20138;-66
2022/10/03 12:48:47;;;;;;;1.85;1.48;;;16.20;73.20;;;;;;5048166;28;20056;-66
2022/10/03 12:51:53;;;;;;;1.23;1.17;;;16.20;73.20;;;;;;5046723;28;21080;-66
2022/10/03 12:54:21;;;;;;;1.50;1.40;;;16.20;73.20;;;;;;5044199;28;20024;-67
2022/10/03 12:56:48;;;;;;;2.13;1.75;;;16.30;73.40;;;;;;5035945;28;21158;-66
2022/10/03 12:59:41;;;;;;;1.58;1.48;;;16.20;73.50;;;;;;5040657;28;20056;-66
2022/10/03 13:02:24;;;;;;;1.30;1.13;;;16.20;73.60;;;;;;5041012;28;20972;-66
2022/10/03 13:05:25;;;;;;;1.48;1.38;;;16.20;73.60;;;;;;5037832;28;20040;-67
2022/10/03 13:07:56;;;;;;;1.02;1.02;;;16.20;74.00;;;;;;5047629;28;20573;-67
2022/10/03 13:10:31;;;;;;;1.10;1.10;;;16.30;74.00;;;;;;5042894;28;20033;-67
2022/10/03 13:13:27;;;;;;;1.23;1.17;;;16.30;73.90;;;;;;5042352;28;20383;-67
2022/10/03 13:16:30;;;;;;;2.22;1.25;;;16.40;73.90;;;;;;5048324;28;20036;-70
2022/10/03 13:19:20;;;;;;;0.90;0.90;;;16.40;73.90;;;;;;5042790;28;20175;-69
2022/10/03 13:22:06;;;;;;;1.38;1.27;;;16.40;73.90;;;;;;5041708;28;20028;-71
2022/10/03 13:25:00;;;;;;;1.30;1.20;;;16.40;73.90;;;;;;5046012;28;20059;-70
2022/10/03 13:27:44;;;;;;;1.85;1.30;;;16.50;74.10;;;;;;5023388;28;20060;-68
2022/10/03 13:30:18;;;;;;;1.05;0.98;;;16.40;74.30;;;;;;5046626;28;20032;-70
2022/10/03 13:32:55;;;;;;;1.52;1.42;;;16.40;74.40;;;;;;5049632;28;20029;-68
2022/10/03 13:38:41;;;;;;;2.05;1.85;;;16.40;74.50;;;;;;5042884;28;20038;-69
2022/10/03 13:41:32;;;;;;;2.17;2.00;;;16.40;74.70;;;;;;5052039;28;20617;-71
2022/10/03 13:44:18;;;;;;;1.65;1.55;;;16.40;74.60;;;;;;5054749;28;20064;-66
2022/10/03 13:47:14;;;;;;;2.85;1.92;;;16.30;74.70;;;;;;5048516;28;20536;-67
2022/10/03 13:50:30;;;;;;;1.83;1.73;;;16.30;75.10;;;;;;5051148;28;20102;-67
2022/10/03 13:53:13;;;;;;;1.30;1.20;;;16.20;75.10;;;;;;5004519;28;20116;-67
2022/10/03 13:55:46;;;;;;;1.52;1.42;;;16.20;75.30;;;;;;5003060;28;20040;-66
2022/10/03 13:58:34;;;;;;;1.85;1.52;;;16.20;75.30;;;;;;5035589;28;20031;-66
2022/10/03 14:01:02;;;;;;;2.20;1.20;;;16.20;75.20;;;;;;5044735;28;20046;-66
2022/10/03 14:03:53;;;;;;;1.42;1.33;;;16.20;75.20;;;;;;5043377;28;20033;-66
2022/10/03 14:06:28;;;;;;;1.38;1.27;;;16.20;75.20;;;;;;5051197;28;20628;-66
2022/10/03 14:09:18;;;;;;;1.20;1.17;;;16.10;75.10;;;;;;5048958;28;20028;-66
2022/10/03 14:12:17;;;;;;;1.00;1.00;;;16.10;75.30;;;;;;5049759;28;20036;-66
2022/10/03 14:14:42;;;;;;;0.98;0.98;;;16.10;75.30;;;;;;5050026;28;20021;-66
2022/10/03 14:17:27;;;;;;;1.38;1.23;;;16.10;75.30;;;;;;5050027;28;20032;-66
2022/10/03 14:19:53;;;;;;;2.45;1.40;;;16.20;75.30;;;;;;5041023;28;20159;-66
2022/10/03 14:22:28;;;;;;;1.60;1.50;;;16.20;75.20;;;;;;5046031;28;20075;-66
2022/10/03 14:25:02;;;;;;;1.65;1.48;;;16.20;75.20;;;;;;5049877;28;20032;-66
2022/10/03 14:27:53;;;;;;;1.58;1.48;;;16.20;75.20;;;;;;5053770;28;20025;-66
2022/10/03 14:30:37;;;;;;;1.27;1.27;;;16.20;75.20;;;;;;5046264;28;20508;-66
2022/10/03 14:33:21;;;;;;;2.63;1.48;;;16.20;75.20;;;;;;5063760;28;20103;-66
2022/10/03 14:36:27;;;;;;;1.70;1.60;;;16.20;75.30;;;;;;5045451;28;20028;-66
2022/10/03 14:39:06;;;;;;;1.60;1.50;;;16.20;75.40;;;;;;5000731;28;20730;-66
2022/10/03 14:41:32;;;;;;;1.70;1.60;;;16.20;75.60;;;;;;5040695;28;20442;-66